Demo 6
Misión y Visión

La misión es proporcionar información fiable a la navegación aérea, contribuyendo a la seguridad, regularidad y eficiencia de la Navegación Aérea Internacional

La visión es contribuir sustancialmente al desarrollo de conocimientos y a la utilización de la meteorología aeronáutica a nivel nacional e internacional, mediante la innovación y la coparticipación con sectores sociales y productivos de la sociedad.

 
  Inicio
  Metar
  Taf
  Wintemp
  SIGMET
  Avisos
  Pronósticos
  Carpeta Meteorologica
  Imágenes Satelitales
  Climatología Aeronáutica
   
  ¿Quienes Somos?
  Contacto
  Eventos
Taf

 

AERÓDROMO
(EN CONSTRUCCION)

 

PRONOSTICO DE AERÓDROMO
TAF / PROYECCION CLIMATICA
MES DE JULIO

 

AEROPUERTO ENRIQUE MALEK:


TAF:

TAF MPDA 212325Z 2200/2212 21005KT 9999 SCT018=

 

AEROPUERTO PANAMA PACIFICO:



TAF:

TAF MPPA 212325Z 2200/2306 35004KT 9999 SCT018 BECMG 2200/2204 00000KT TEMPO 2217/2219 19005KT=



AEROPUERTO MARCOS A. GELABERT:



TAF:

TAF MPMG 212325Z 2200/2212 34005KT 9999 SCT018=

AEROPUERTO INTL. DE TOCUMEN:



TAF:

TAF MPTO 212325Z 2200/2306 31006KT 9999 SCT018 TEMPO 2210/2212 VRB02KT TEMPO 2217/2219 17005KT=



Fatal error: Uncaught Error: Class 'htmlsql' not found in C:\Apache24\htdocs\met\meteorologia-taf.php:249 Stack trace: #0 {main} thrown in C:\Apache24\htdocs\met\meteorologia-taf.php on line 249